Pagina principale
METAR-TAF:

METAR-TAF

Aeroporti :

Aeroporto di Brescia-Ghedi

Brescia Ghedi, Italia

latitudine: 45-25N, longitudine: 010-17E, altezza: 102 m

Osservazione

Il bollettino è stato emesso 1 ora e 8 minuti fa, alle 10:55 UTC
Vento 4 kt da ovest/sud-ovest
Temperature 14°C
Umidità 58%
Pressione 1021 hPa
Visibilità 10 km o più
nessuna nube inferiore a 1500 m e nessun cumulonembo

METAR: LIPL 261055Z 25004KT CAVOK 14/06 Q1021 RMK SKC VIS MIN 9999 WIND THR31 26004KT WIND THR13 28004KT BLU

Ora: 14:03 (12:03 UTC)

Previsione

Il bollettino è stato emesso 1 ora e 3 minuti fa, alle 11:00 UTC
Previsione valida dal 26 alle 12 UTC al 26 alle 21 UTC
Vento 3 kt da direzioni variabili
Visibilità 10 km o più
nessuna nube inferiore a 1500 m e nessun cumulonembo

TAF: LIPL 261100Z 2612/2621 VRB03KT CAVOK

Osservazioni e previsioni meteorologiche di più di 4000 aeroporti (messaggi METAR e TAF).

Le stazioni disponibili sono rappresentate dai dischi gialli e rossi sulla carta.

Puntare il mouse per vedere il nome della stazione.

Clicca sopra per visualizzare le osservazioni e previsioni meteorologiche.

Per cambiare la mappa : fare clic sui pulsanti verdi con una croce nera per ingrandire, il pulsante verde con un trattino per diminuire, o sulla freccia verde per le mappe adiacenti.


METAR-TAF: